Time;durP1;ratioP1;P1;durP2;ratioP2;P2;SDS_P1;SDS_P2;PMS_P1;PMS_P2;Temp;Humidity;BMP_temperature;BMP_pressure;BME280_temperature;BME280_humidity;BME280_pressure;Samples;Min_cycle;Max_cycle;Signal;HPM_P1;HPM_P2
2024/02/14 00:02:28;;;;;;;8.52;3.67;;;12.00;53.70;;;;;;6307521;28;20020;-77
2024/02/14 00:05:31;;;;;;;10.65;4.90;;;12.00;53.70;;;;;;6291784;28;20029;-77
2024/02/14 00:08:32;;;;;;;5.57;3.30;;;12.00;53.60;;;;;;6307171;28;20574;-77
2024/02/14 00:11:33;;;;;;;10.73;3.45;;;12.00;53.50;;;;;;6305795;28;20024;-77
2024/02/14 00:14:34;;;;;;;9.88;4.32;;;12.00;53.20;;;;;;6307657;28;20062;-77
2024/02/14 00:17:50;;;;;;;11.43;4.45;;;12.00;53.20;;;;;;6293689;28;20393;-76
2024/02/14 00:21:16;;;;;;;10.85;4.38;;;12.10;53.30;;;;;;6299451;28;20485;-77
2024/02/14 00:24:18;;;;;;;10.30;4.90;;;12.10;53.90;;;;;;6307221;28;20128;-77
2024/02/14 00:27:19;;;;;;;8.48;4.40;;;12.10;53.40;;;;;;6306485;28;20066;-76
2024/02/14 00:30:22;;;;;;;7.40;3.78;;;12.00;53.50;;;;;;6304648;28;20048;-77
2024/02/14 00:33:24;;;;;;;8.73;3.47;;;12.00;53.90;;;;;;6278173;28;20032;-77
2024/02/14 00:36:25;;;;;;;8.20;4.70;;;11.90;54.30;;;;;;6282378;28;20078;-77
2024/02/14 00:39:27;;;;;;;9.00;4.10;;;11.80;54.50;;;;;;6302059;28;20063;-77
2024/02/14 00:42:28;;;;;;;6.43;3.38;;;11.70;54.70;;;;;;6288161;28;20427;-77
2024/02/14 00:45:28;;;;;;;9.77;4.30;;;11.70;54.80;;;;;;6299655;28;20557;-75
2024/02/14 00:48:29;;;;;;;9.77;4.93;;;11.60;54.80;;;;;;6296314;28;20048;-77
2024/02/14 00:51:30;;;;;;;8.27;3.70;;;11.60;54.90;;;;;;6282008;28;20031;-77
2024/02/14 00:54:31;;;;;;;10.50;4.80;;;11.50;55.00;;;;;;6299420;28;20031;-77
2024/02/14 00:57:33;;;;;;;10.57;4.85;;;11.50;55.00;;;;;;6300366;28;20102;-77
2024/02/14 01:00:50;;;;;;;14.15;5.88;;;11.40;55.00;;;;;;6306476;28;20028;-75
2024/02/14 01:03:51;;;;;;;11.38;4.38;;;11.40;55.10;;;;;;6304201;28;20039;-78
2024/02/14 01:06:53;;;;;;;10.77;4.20;;;11.40;55.10;;;;;;6300417;28;20554;-75
2024/02/14 01:09:53;;;;;;;9.48;4.63;;;11.40;55.10;;;;;;6294436;28;20028;-78
2024/02/14 01:12:55;;;;;;;9.50;4.50;;;11.40;55.10;;;;;;6279635;28;20510;-77
2024/02/14 01:15:56;;;;;;;7.72;4.28;;;11.40;55.00;;;;;;6305105;28;20020;-76
2024/02/14 01:18:56;;;;;;;9.30;4.55;;;11.50;54.90;;;;;;6284961;28;20020;-76
2024/02/14 01:21:57;;;;;;;6.50;3.28;;;11.50;54.80;;;;;;6282678;28;20806;-76
2024/02/14 01:24:59;;;;;;;8.05;3.20;;;11.60;54.80;;;;;;6281274;28;20031;-77
2024/02/14 01:28:01;;;;;;;7.30;3.10;;;11.60;54.50;;;;;;6304256;28;20019;-77
2024/02/14 01:31:02;;;;;;;6.57;3.50;;;11.60;54.40;;;;;;6304257;28;20078;-76
2024/02/14 01:34:02;;;;;;;8.32;3.47;;;11.60;54.40;;;;;;6298620;28;20606;-76
2024/02/14 01:37:03;;;;;;;8.38;3.58;;;11.60;54.50;;;;;;6305303;28;20024;-77
2024/02/14 01:40:07;;;;;;;5.13;3.28;;;11.60;54.50;;;;;;6305716;28;20130;-77
2024/02/14 01:43:10;;;;;;;10.48;4.15;;;11.70;54.60;;;;;;6305980;28;20111;-77
2024/02/14 01:46:11;;;;;;;8.52;3.67;;;11.60;54.70;;;;;;6298365;28;20036;-77
2024/02/14 01:49:12;;;;;;;8.80;3.75;;;11.60;54.70;;;;;;6304067;28;20047;-77
2024/02/14 01:52:15;;;;;;;5.22;2.95;;;11.60;54.70;;;;;;6292081;28;20036;-78
2024/02/14 01:55:41;;;;;;;7.18;2.72;;;11.60;54.60;;;;;;6302214;28;20469;-77
2024/02/14 01:58:42;;;;;;;9.55;3.20;;;11.60;54.40;;;;;;6302232;28;20016;-77
2024/02/14 02:01:43;;;;;;;8.63;3.30;;;11.60;54.40;;;;;;6287285;28;20075;-77
2024/02/14 02:04:44;;;;;;;10.82;3.22;;;11.70;54.40;;;;;;6299342;28;20093;-78
2024/02/14 02:07:48;;;;;;;9.93;3.97;;;11.70;54.30;;;;;;6292365;28;20206;-77
2024/02/14 02:10:51;;;;;;;7.30;3.60;;;11.70;54.30;;;;;;6271465;28;20100;-77
2024/02/14 02:13:52;;;;;;;10.88;3.83;;;11.80;54.30;;;;;;6288996;28;20036;-76
2024/02/14 02:16:53;;;;;;;8.32;3.92;;;11.80;54.30;;;;;;6299310;28;20035;-76
2024/02/14 02:19:54;;;;;;;17.75;4.63;;;11.80;54.30;;;;;;6279146;28;20844;-77
2024/02/14 02:22:55;;;;;;;8.93;3.85;;;11.70;54.40;;;;;;6308718;28;20519;-76
2024/02/14 02:25:56;;;;;;;8.07;3.92;;;11.70;54.50;;;;;;6287737;28;20053;-77
2024/02/14 02:28:59;;;;;;;8.73;3.78;;;11.60;54.60;;;;;;6321515;28;20090;-77
2024/02/14 02:32:00;;;;;;;9.98;3.53;;;11.50;54.70;;;;;;6291052;28;20107;-77
2024/02/14 02:35:03;;;;;;;9.32;4.57;;;11.50;54.80;;;;;;6293176;28;20032;-76
2024/02/14 02:42:26;;;;;;;;;;;11.40;54.90;;;;;;6311921;28;20376;-76
2024/02/14 02:45:28;;;;;;;8.82;4.07;;;11.30;55.00;;;;;;6289558;28;20014;-77
2024/02/14 02:48:31;;;;;;;7.78;4.43;;;11.30;55.10;;;;;;6308421;28;20110;-76
2024/02/14 02:51:32;;;;;;;12.57;4.03;;;11.30;55.90;;;;;;6291773;28;20467;-77
2024/02/14 02:54:34;;;;;;;9.38;4.20;;;11.20;55.40;;;;;;6306530;28;20729;-77
2024/02/14 02:57:36;;;;;;;12.55;4.40;;;11.20;55.50;;;;;;6289154;28;20119;-76
2024/02/14 03:00:37;;;;;;;10.43;4.65;;;11.20;55.60;;;;;;6308093;28;20090;-77
2024/02/14 03:03:38;;;;;;;12.60;4.80;;;11.10;55.60;;;;;;6285288;28;20439;-75
2024/02/14 03:06:43;;;;;;;10.75;4.25;;;11.10;55.60;;;;;;6283245;28;20467;-76
2024/02/14 03:09:45;;;;;;;12.80;4.72;;;11.10;55.60;;;;;;6284728;28;20499;-76
2024/02/14 03:21:32;;;;;;;8.57;3.65;;;11.10;55.60;;;;;;6289784;28;20036;-77
2024/02/14 03:24:36;;;;;;;8.35;3.97;;;11.10;55.70;;;;;;6301830;28;20043;-76
2024/02/14 03:27:39;;;;;;;8.00;3.85;;;11.10;55.80;;;;;;6306700;28;20020;-76
2024/02/14 03:30:40;;;;;;;10.48;4.13;;;11.10;55.80;;;;;;6300003;28;20109;-77
2024/02/14 03:33:44;;;;;;;8.50;3.80;;;11.10;55.80;;;;;;6306164;28;20160;-76
2024/02/14 03:36:45;;;;;;;8.07;3.97;;;11.10;55.80;;;;;;6291220;28;20039;-75
2024/02/14 03:39:46;;;;;;;9.82;4.30;;;11.10;55.90;;;;;;6293850;28;20531;-77
2024/02/14 03:42:47;;;;;;;9.25;3.90;;;11.10;55.90;;;;;;6300765;28;20455;-76
2024/02/14 03:45:49;;;;;;;7.30;4.00;;;11.10;55.80;;;;;;6302156;28;20028;-76
2024/02/14 03:48:50;;;;;;;9.07;3.72;;;11.20;55.80;;;;;;6306250;28;20070;-77
2024/02/14 03:51:54;;;;;;;8.10;3.72;;;11.20;55.80;;;;;;6281975;28;20055;-77
2024/02/14 03:54:55;;;;;;;6.70;3.20;;;11.10;55.60;;;;;;6278117;28;20024;-77
2024/02/14 03:57:56;;;;;;;7.38;3.15;;;11.20;55.50;;;;;;6306612;28;20047;-77
2024/02/14 04:00:57;;;;;;;6.10;3.13;;;11.10;55.50;;;;;;6306059;28;20028;-77
2024/02/14 04:04:11;;;;;;;5.28;3.17;;;11.10;55.50;;;;;;6295090;28;20517;-76
2024/02/14 04:07:14;;;;;;;10.30;3.60;;;11.10;55.60;;;;;;6288278;28;20373;-76
2024/02/14 04:10:16;;;;;;;5.10;2.72;;;11.00;55.70;;;;;;6299554;28;20051;-76
2024/02/14 04:13:17;;;;;;;7.40;2.90;;;11.00;55.70;;;;;;6308678;28;20024;-77
2024/02/14 04:16:21;;;;;;;7.20;3.10;;;11.00;55.60;;;;;;6284926;28;20031;-77
2024/02/14 04:19:22;;;;;;;11.25;2.78;;;11.00;55.50;;;;;;6312967;28;20086;-75
2024/02/14 04:22:22;;;;;;;9.10;3.05;;;11.00;55.30;;;;;;6303168;28;20016;-77
2024/02/14 04:25:24;;;;;;;5.07;2.30;;;10.90;55.20;;;;;;6302246;28;20020;-75
2024/02/14 04:28:26;;;;;;;8.10;2.70;;;10.90;55.10;;;;;;6300860;28;20034;-77
2024/02/14 04:31:29;;;;;;;4.63;2.30;;;10.90;55.00;;;;;;6284350;28;20013;-77
2024/02/14 04:34:33;;;;;;;5.82;2.55;;;10.90;54.90;;;;;;6279671;28;20631;-77
2024/02/14 04:37:36;;;;;;;6.00;2.28;;;10.80;54.80;;;;;;6300675;28;20595;-76
2024/02/14 04:40:38;;;;;;;8.32;2.00;;;10.80;54.90;;;;;;6267772;28;20020;-76
2024/02/14 04:43:51;;;;;;;3.42;1.52;;;10.80;54.80;;;;;;6301671;28;20032;-76
2024/02/14 04:47:17;;;;;;;3.45;1.15;;;10.80;54.60;;;;;;6295650;28;20071;-77
2024/02/14 04:50:18;;;;;;;2.45;1.33;;;10.80;54.50;;;;;;6290509;28;20145;-77
2024/02/14 04:53:19;;;;;;;9.32;1.58;;;10.80;54.30;;;;;;6270556;28;20339;-76
2024/02/14 04:56:20;;;;;;;3.53;1.23;;;10.80;54.10;;;;;;6268404;28;20039;-76
2024/02/14 04:59:21;;;;;;;5.38;1.52;;;10.80;53.90;;;;;;6287042;28;20100;-77
2024/02/14 05:02:22;;;;;;;3.00;1.58;;;10.80;53.80;;;;;;6282226;28;20020;-77
2024/02/14 05:05:23;;;;;;;1.90;1.27;;;10.80;53.60;;;;;;6278855;28;20024;-77
2024/02/14 05:08:24;;;;;;;3.00;1.80;;;10.70;53.90;;;;;;6287735;28;20569;-76
2024/02/14 05:11:25;;;;;;;5.85;2.60;;;10.70;53.30;;;;;;6307319;28;20031;-78
2024/02/14 05:14:30;;;;;;;4.85;2.38;;;10.70;53.70;;;;;;6282651;28;20471;-77
2024/02/14 05:17:30;;;;;;;9.57;3.50;;;10.60;54.30;;;;;;6276531;28;20025;-76
2024/02/14 05:20:32;;;;;;;10.98;3.78;;;10.60;55.30;;;;;;6280302;28;20028;-77
2024/02/14 05:23:34;;;;;;;7.63;3.42;;;10.60;55.00;;;;;;6282164;28;20341;-77
2024/02/14 05:26:35;;;;;;;6.43;3.03;;;10.60;55.40;;;;;;6301214;28;20020;-77
2024/02/14 05:29:36;;;;;;;7.93;3.75;;;10.50;55.60;;;;;;6275989;28;20031;-76
2024/02/14 05:32:37;;;;;;;8.82;3.85;;;10.60;55.90;;;;;;6303530;28;20020;-77
2024/02/14 05:35:38;;;;;;;4.78;2.95;;;10.50;56.30;;;;;;6286981;28;20032;-77
2024/02/14 05:38:38;;;;;;;10.05;3.20;;;10.40;56.40;;;;;;6292224;28;20024;-77
2024/02/14 05:41:39;;;;;;;6.38;2.65;;;10.40;56.70;;;;;;6275916;28;20509;-78
2024/02/14 05:44:40;;;;;;;6.93;3.67;;;10.40;57.00;;;;;;6283028;28;20063;-78
2024/02/14 05:47:43;;;;;;;8.65;3.88;;;10.30;57.30;;;;;;6285265;28;20608;-77
2024/02/14 05:50:44;;;;;;;12.10;4.15;;;10.20;57.60;;;;;;6291407;28;20043;-78
2024/02/14 05:53:44;;;;;;;9.75;4.38;;;10.20;57.80;;;;;;6280848;28;20032;-77
2024/02/14 05:56:46;;;;;;;7.65;3.83;;;10.10;57.90;;;;;;6297838;28;20028;-77
2024/02/14 05:59:47;;;;;;;6.65;3.58;;;10.10;58.10;;;;;;6303482;28;20021;-78
2024/02/14 06:02:48;;;;;;;12.57;3.95;;;10.10;58.00;;;;;;6301588;28;20043;-77
2024/02/14 06:05:49;;;;;;;9.48;4.38;;;10.00;58.10;;;;;;6282811;28;20096;-78
2024/02/14 06:08:51;;;;;;;7.47;3.95;;;10.10;58.20;;;;;;6297652;28;20449;-77
2024/02/14 06:11:52;;;;;;;7.68;4.15;;;10.10;58.30;;;;;;6301110;28;20047;-77
2024/02/14 06:14:56;;;;;;;13.65;4.82;;;10.10;58.40;;;;;;6278453;28;20151;-77
2024/02/14 06:17:57;;;;;;;12.45;5.18;;;10.10;58.50;;;;;;6295379;28;20702;-78
2024/02/14 06:20:58;;;;;;;8.27;4.25;;;10.10;58.40;;;;;;6280845;28;20098;-78
2024/02/14 06:24:00;;;;;;;8.38;4.40;;;10.10;58.40;;;;;;6280600;28;20089;-78
2024/02/14 06:27:02;;;;;;;4.95;2.25;;;10.10;58.20;;;;;;6277206;28;20035;-79
2024/02/14 06:30:04;;;;;;;4.70;2.10;;;10.10;58.00;;;;;;6298701;28;20111;-78
2024/02/14 06:33:05;;;;;;;8.50;2.13;;;10.20;57.50;;;;;;6281544;28;20063;-78
2024/02/14 06:36:06;;;;;;;3.92;2.20;;;10.20;57.00;;;;;;6298357;28;20020;-79
2024/02/14 06:39:08;;;;;;;4.03;2.08;;;10.20;56.40;;;;;;6298250;28;20142;-80
2024/02/14 06:42:11;;;;;;;21.30;8.52;;;10.20;55.90;;;;;;6280310;28;20055;-80
2024/02/14 06:45:11;;;;;;;8.02;1.92;;;10.20;55.50;;;;;;6297858;28;20044;-79
2024/02/14 06:48:12;;;;;;;2.78;1.48;;;10.20;55.20;;;;;;6280818;28;20032;-78
2024/02/14 06:51:14;;;;;;;4.60;1.80;;;10.10;55.50;;;;;;6280318;28;20057;-79
2024/02/14 06:54:17;;;;;;;3.42;2.20;;;10.20;54.80;;;;;;6301277;28;20596;-80
2024/02/14 06:57:19;;;;;;;4.45;2.00;;;10.10;54.80;;;;;;6285945;28;20359;-79
2024/02/14 07:00:21;;;;;;;6.05;2.70;;;10.10;55.00;;;;;;6302195;28;20417;-79
2024/02/14 07:03:23;;;;;;;4.22;2.00;;;10.10;55.40;;;;;;6286051;28;20130;-78
2024/02/14 07:06:24;;;;;;;7.07;2.67;;;10.00;55.60;;;;;;6307825;28;20020;-80
2024/02/14 07:09:30;;;;;;;5.03;2.60;;;10.10;55.90;;;;;;6303122;28;20103;-81
2024/02/14 07:12:31;;;;;;;12.18;3.55;;;10.10;56.10;;;;;;6283398;28;20020;-80
2024/02/14 07:15:32;;;;;;;13.07;2.85;;;10.10;56.40;;;;;;6292106;28;20024;-80
2024/02/14 07:18:34;;;;;;;6.80;3.30;;;10.10;56.40;;;;;;6284996;28;20028;-80
2024/02/14 07:21:37;;;;;;;8.30;2.88;;;10.10;56.40;;;;;;6287730;28;20089;-79
2024/02/14 07:24:38;;;;;;;6.50;2.47;;;10.10;56.20;;;;;;6287549;28;20147;-78
2024/02/14 07:27:41;;;;;;;2.97;1.73;;;10.20;55.90;;;;;;6299554;28;20559;-79
2024/02/14 07:30:44;;;;;;;3.25;1.73;;;10.20;55.60;;;;;;6304267;28;20103;-78
2024/02/14 07:33:46;;;;;;;4.20;1.40;;;10.20;55.10;;;;;;6313254;28;20054;-80
2024/02/14 07:36:48;;;;;;;5.38;2.00;;;10.20;54.70;;;;;;6285982;28;20095;-80
2024/02/14 07:39:49;;;;;;;3.58;1.50;;;10.20;54.70;;;;;;6306169;28;20135;-78
2024/02/14 07:42:50;;;;;;;8.13;1.83;;;10.20;54.50;;;;;;6294843;28;20024;-79
2024/02/14 07:45:51;;;;;;;2.85;1.23;;;10.20;54.40;;;;;;6307361;28;20118;-79
2024/02/14 07:48:52;;;;;;;12.38;2.08;;;10.20;54.30;;;;;;6252742;28;20012;-80
2024/02/14 07:51:55;;;;;;;2.67;1.58;;;10.30;54.20;;;;;;6307365;28;20257;-81
2024/02/14 07:59:20;;;;;;;5.32;1.77;;;10.30;54.10;;;;;;6309362;28;20080;-81
2024/02/14 08:02:46;;;;;;;8.70;2.20;;;10.40;53.90;;;;;;6284455;28;20040;-78
2024/02/14 08:05:49;;;;;;;5.07;2.20;;;10.40;53.90;;;;;;6307392;28;20357;-79
2024/02/14 08:08:54;;;;;;;5.90;2.15;;;10.50;53.80;;;;;;6308766;28;20028;-80
2024/02/14 08:11:55;;;;;;;4.13;2.13;;;10.60;53.70;;;;;;6302707;28;20402;-79
2024/02/14 08:15:04;;;;;;;4.80;2.10;;;10.60;53.40;;;;;;6295245;28;20060;-79
2024/02/14 08:18:06;;;;;;;;;;;10.70;53.30;;;;;;6316733;28;20030;-80
2024/02/14 08:21:08;;;;;;;4.95;1.60;;;10.70;53.40;;;;;;6330805;28;19949;-80
2024/02/14 08:24:09;;;;;;;5.35;2.15;;;10.90;53.30;;;;;;6288161;28;20150;-81
2024/02/14 08:27:10;;;;;;;3.28;1.92;;;11.00;53.20;;;;;;6309345;28;20460;-80
2024/02/14 08:30:12;;;;;;;18.00;2.08;;;11.10;52.80;;;;;;6297222;28;20369;-80
2024/02/14 08:33:14;;;;;;;3.47;1.70;;;11.30;52.40;;;;;;6287868;28;20055;-80
2024/02/14 08:36:16;;;;;;;11.48;2.72;;;11.40;52.00;;;;;;6293508;28;20303;-80
2024/02/14 08:39:21;;;;;;;4.30;2.28;;;11.40;51.70;;;;;;6296530;28;20046;-80
2024/02/14 08:42:25;;;;;;;7.68;3.53;;;11.50;51.50;;;;;;6296307;28;20105;-80
2024/02/14 08:45:29;;;;;;;3.60;1.63;;;11.70;51.40;;;;;;6310166;28;20171;-80
2024/02/14 08:48:35;;;;;;;4.47;2.30;;;11.90;51.00;;;;;;6290879;28;20027;-81
2024/02/14 08:51:37;;;;;;;4.15;2.30;;;12.00;50.60;;;;;;6301139;28;20038;-80
2024/02/14 08:54:39;;;;;;;5.78;2.33;;;12.10;50.30;;;;;;6280775;28;20055;-79
2024/02/14 08:57:41;;;;;;;5.95;2.15;;;12.30;50.00;;;;;;6264915;28;20135;-80
2024/02/14 09:00:41;;;;;;;4.63;2.22;;;12.40;49.80;;;;;;6298462;28;20123;-80
2024/02/14 09:03:47;;;;;;;3.55;2.00;;;12.50;49.20;;;;;;6303192;28;20079;-80
2024/02/14 09:06:47;;;;;;;7.43;1.80;;;12.50;49.00;;;;;;6290930;28;20022;-80
2024/02/14 09:09:50;;;;;;;4.80;1.55;;;12.60;49.10;;;;;;6302709;28;20016;-81
2024/02/14 09:12:51;;;;;;;7.13;2.97;;;12.70;48.50;;;;;;6298219;28;20503;-81
2024/02/14 09:15:54;;;;;;;3.33;2.35;;;12.70;48.40;;;;;;6311382;28;20055;-81
2024/02/14 09:18:54;;;;;;;13.80;2.90;;;12.80;48.50;;;;;;6289183;28;20384;-81
2024/02/14 09:22:01;;;;;;;6.75;2.67;;;12.90;48.40;;;;;;6296811;28;20078;-81
2024/02/14 09:25:04;;;;;;;16.00;2.70;;;13.00;48.30;;;;;;6290254;28;20032;-79
2024/02/14 09:28:07;;;;;;;8.48;3.97;;;13.10;48.30;;;;;;6303751;28;20071;-80
2024/02/14 09:31:12;;;;;;;12.73;3.50;;;13.20;48.30;;;;;;6291313;28;20069;-81
2024/02/14 09:34:14;;;;;;;9.43;2.58;;;13.30;48.20;;;;;;6289258;28;20024;-80
2024/02/14 09:37:16;;;;;;;5.43;2.72;;;13.40;48.30;;;;;;6289849;28;20119;-81
2024/02/14 09:40:18;;;;;;;5.13;2.63;;;13.50;48.00;;;;;;6281845;28;20051;-80
2024/02/14 09:43:34;;;;;;;6.22;2.65;;;13.50;47.80;;;;;;6291302;28;20085;-81
2024/02/14 09:46:38;;;;;;;13.63;2.83;;;13.60;47.70;;;;;;6305086;28;20122;-81
2024/02/14 09:49:42;;;;;;;7.20;2.50;;;13.70;47.50;;;;;;6302394;28;20421;-82
2024/02/14 09:52:47;;;;;;;9.10;2.60;;;13.70;46.70;;;;;;6303102;28;20016;-81
2024/02/14 09:55:50;;;;;;;6.40;3.13;;;13.70;46.40;;;;;;6280792;28;20035;-81
2024/02/14 09:58:57;;;;;;;14.95;3.28;;;13.70;46.80;;;;;;6289841;28;20384;-80
2024/02/14 10:01:58;;;;;;;8.43;3.40;;;13.80;47.00;;;;;;6281728;28;20074;-81
2024/02/14 10:05:00;;;;;;;3.92;2.90;;;13.90;47.00;;;;;;6313095;28;20032;-80
2024/02/14 10:08:01;;;;;;;7.18;2.92;;;13.90;46.60;;;;;;6280541;28;20044;-81
2024/02/14 10:11:04;;;;;;;7.70;2.47;;;14.00;46.60;;;;;;6258110;28;20020;-79
2024/02/14 10:14:09;;;;;;;5.20;2.72;;;14.10;46.30;;;;;;6276316;28;20088;-81
2024/02/14 10:17:18;;;;;;;5.53;2.78;;;14.20;45.90;;;;;;6283051;28;20078;-80
2024/02/14 10:20:19;;;;;;;4.70;2.47;;;14.30;46.10;;;;;;6305491;28;20712;-81
2024/02/14 10:23:20;;;;;;;5.40;2.03;;;14.30;45.30;;;;;;6291078;28;20020;-79
2024/02/14 10:26:22;;;;;;;5.43;2.90;;;14.40;44.90;;;;;;6306872;28;20024;-80
2024/02/14 10:29:25;;;;;;;11.23;2.33;;;14.60;44.80;;;;;;6285355;28;20036;-81
2024/02/14 10:32:28;;;;;;;6.55;2.70;;;14.90;44.60;;;;;;6304655;28;20051;-81
2024/02/14 10:35:31;;;;;;;4.15;2.28;;;15.30;43.80;;;;;;6287443;28;20028;-80
2024/02/14 10:38:34;;;;;;;5.63;2.20;;;15.70;43.20;;;;;;6309274;28;20389;-80
2024/02/14 10:41:35;;;;;;;6.78;3.00;;;16.00;42.80;;;;;;6289477;28;20028;-80
2024/02/14 10:44:38;;;;;;;8.13;1.92;;;16.20;42.40;;;;;;6307185;28;20112;-81
2024/02/14 10:47:48;;;;;;;4.32;2.33;;;16.40;42.00;;;;;;6308687;28;20491;-80
2024/02/14 10:50:57;;;;;;;5.85;2.47;;;16.50;41.60;;;;;;6305168;28;20043;-79
2024/02/14 10:54:06;;;;;;;7.05;2.47;;;16.70;40.80;;;;;;6305366;28;20038;-82
2024/02/14 10:57:13;;;;;;;6.22;2.78;;;16.80;40.80;;;;;;6302819;28;20032;-80
2024/02/14 11:00:18;;;;;;;5.07;2.97;;;17.10;40.60;;;;;;6300933;28;20133;-80
2024/02/14 11:03:20;;;;;;;3.08;1.77;;;17.40;40.30;;;;;;6306432;28;20110;-81
2024/02/14 11:06:23;;;;;;;5.00;2.00;;;17.80;39.80;;;;;;6290573;28;20482;-81
2024/02/14 11:09:33;;;;;;;6.18;2.03;;;17.90;38.40;;;;;;6309087;28;20080;-80
2024/02/14 11:12:36;;;;;;;6.05;2.00;;;18.00;37.80;;;;;;6286176;28;20128;-80
2024/02/14 11:15:37;;;;;;;4.80;2.00;;;18.10;37.50;;;;;;6298875;28;20024;-79
2024/02/14 11:18:38;;;;;;;4.57;1.92;;;18.10;37.10;;;;;;6290179;28;20125;-80
2024/02/14 11:21:48;;;;;;;5.25;2.40;;;18.30;36.90;;;;;;6295921;28;20028;-80
2024/02/14 11:24:50;;;;;;;5.80;1.50;;;18.60;36.80;;;;;;6308604;28;20028;-83
2024/02/14 11:27:51;;;;;;;2.97;1.40;;;19.10;35.70;;;;;;6306473;28;20039;-81
2024/02/14 11:30:52;;;;;;;7.10;2.15;;;19.90;34.50;;;;;;6284961;28;20138;-80
2024/02/14 11:33:53;;;;;;;16.60;4.13;;;20.60;33.10;;;;;;6299742;28;20255;-84
2024/02/14 11:36:55;;;;;;;2.78;1.02;;;21.40;31.80;;;;;;6303085;28;20116;-78
2024/02/14 11:39:57;;;;;;;4.18;1.30;;;22.00;30.20;;;;;;6300902;28;20016;-81
2024/02/14 11:42:59;;;;;;;1.83;1.40;;;22.70;29.30;;;;;;6304294;28;20020;-81
2024/02/14 11:46:00;;;;;;;7.40;1.58;;;23.40;28.10;;;;;;6303760;28;20030;-81
2024/02/14 11:49:06;;;;;;;2.90;1.33;;;24.20;27.80;;;;;;6301988;28;20032;-80
2024/02/14 11:52:14;;;;;;;11.73;3.03;;;24.90;25.40;;;;;;6298753;28;20583;-80
2024/02/14 11:55:17;;;;;;;9.73;3.97;;;24.90;25.60;;;;;;6299132;28;20059;-80
2024/02/14 11:58:20;;;;;;;2.63;1.30;;;24.50;25.80;;;;;;6284781;28;20695;-82
2024/02/14 12:01:22;;;;;;;3.22;1.20;;;24.10;26.90;;;;;;6301126;28;20024;-81
2024/02/14 12:04:24;;;;;;;4.25;1.25;;;23.80;26.70;;;;;;6307419;28;20024;-82
2024/02/14 12:07:26;;;;;;;3.47;1.20;;;23.50;27.00;;;;;;6290094;28;20043;-81
2024/02/14 12:10:27;;;;;;;3.33;1.70;;;23.40;27.00;;;;;;6290971;28;20016;-81
2024/02/14 12:13:32;;;;;;;2.42;1.70;;;23.40;27.10;;;;;;6300678;28;20103;-81
2024/02/14 12:16:39;;;;;;;8.90;1.90;;;23.30;26.70;;;;;;6305030;28;20027;-80
2024/02/14 12:20:13;;;;;;;2.20;1.20;;;23.40;26.60;;;;;;6299115;28;20028;-80
2024/02/14 12:23:19;;;;;;;3.95;1.63;;;23.70;26.10;;;;;;6279541;28;20032;-80
2024/02/14 12:26:21;;;;;;;3.67;1.50;;;23.80;25.70;;;;;;6296891;28;20021;-81
2024/02/14 12:29:26;;;;;;;3.33;1.00;;;23.60;25.90;;;;;;6312833;28;20080;-80
2024/02/14 12:32:29;;;;;;;2.35;1.60;;;23.40;26.00;;;;;;6307432;28;20020;-81
2024/02/14 12:35:29;;;;;;;3.03;1.25;;;22.90;26.00;;;;;;6301115;28;20029;-81
2024/02/14 12:38:34;;;;;;;2.28;1.20;;;22.60;26.30;;;;;;6282958;28;20081;-82
2024/02/14 12:41:37;;;;;;;2.00;1.20;;;22.50;26.70;;;;;;6299140;28;20100;-81
2024/02/14 12:44:38;;;;;;;3.75;0.95;;;22.50;26.10;;;;;;6281177;28;20047;-81
2024/02/14 12:47:38;;;;;;;1.13;0.95;;;22.40;26.00;;;;;;6297268;28;20032;-80
2024/02/14 12:50:47;;;;;;;1.85;1.20;;;22.20;25.90;;;;;;6300343;28;20238;-81
2024/02/14 12:53:48;;;;;;;4.32;1.73;;;21.90;26.00;;;;;;6283345;28;20035;-81
2024/02/14 12:56:49;;;;;;;1.42;1.00;;;21.70;26.40;;;;;;6282522;28;20049;-79
2024/02/14 12:59:50;;;;;;;2.40;1.40;;;21.50;26.30;;;;;;6298746;28;20461;-81
2024/02/14 13:02:51;;;;;;;4.20;1.10;;;21.30;26.60;;;;;;6281501;28;20105;-79
2024/02/14 13:05:55;;;;;;;2.33;1.10;;;21.10;26.90;;;;;;6300477;28;20421;-79
2024/02/14 13:08:56;;;;;;;1.92;1.20;;;20.90;27.30;;;;;;6281545;28;20131;-80
2024/02/14 13:11:57;;;;;;;2.50;1.20;;;20.80;28.00;;;;;;6265991;28;20482;-80
2024/02/14 13:14:59;;;;;;;3.30;1.27;;;20.80;27.60;;;;;;6263669;28;20032;-80
2024/02/14 13:18:02;;;;;;;2.28;1.27;;;20.80;27.60;;;;;;6299234;28;20047;-81
2024/02/14 13:21:06;;;;;;;2.83;1.33;;;20.90;27.70;;;;;;6299353;28;20031;-79
2024/02/14 13:24:08;;;;;;;1.20;0.85;;;21.00;27.70;;;;;;6297766;28;20190;-80
2024/02/14 13:27:09;;;;;;;3.13;1.30;;;21.00;27.20;;;;;;6281971;28;20043;-81
2024/02/14 13:30:10;;;;;;;2.33;1.20;;;21.00;26.90;;;;;;6299364;28;20624;-80
2024/02/14 13:33:14;;;;;;;1.67;0.90;;;21.00;27.00;;;;;;6281664;28;20433;-80
2024/02/14 13:36:16;;;;;;;3.35;1.00;;;21.10;27.10;;;;;;6299096;28;20140;-81
2024/02/14 13:39:18;;;;;;;3.17;1.00;;;21.20;26.80;;;;;;6299098;28;20077;-80
2024/02/14 13:42:19;;;;;;;1.45;0.85;;;21.30;26.50;;;;;;6299938;28;20031;-78
2024/02/14 13:45:20;;;;;;;2.40;0.85;;;21.40;26.30;;;;;;6280321;28;20471;-80
2024/02/14 13:48:20;;;;;;;2.72;0.80;;;21.50;26.30;;;;;;6300130;28;20020;-80
2024/02/14 13:51:21;;;;;;;2.80;1.05;;;21.60;26.00;;;;;;6298639;28;20061;-81
2024/02/14 13:54:24;;;;;;;3.88;1.50;;;21.70;25.90;;;;;;6299613;28;20074;-80
2024/02/14 13:57:24;;;;;;;2.42;0.95;;;21.70;26.00;;;;;;6300995;28;20081;-80
2024/02/14 14:00:25;;;;;;;2.45;0.93;;;21.80;26.20;;;;;;6306114;28;20065;-80
2024/02/14 14:03:27;;;;;;;3.13;1.00;;;21.80;26.20;;;;;;6311820;28;20084;-80
2024/02/14 14:06:29;;;;;;;4.00;1.40;;;21.80;26.30;;;;;;6306162;28;20028;-80
2024/02/14 14:09:32;;;;;;;2.72;1.23;;;21.70;26.50;;;;;;6284776;28;20095;-79
2024/02/14 14:12:34;;;;;;;11.85;2.72;;;21.60;26.60;;;;;;6287441;28;20043;-79
2024/02/14 14:15:35;;;;;;;7.82;1.63;;;21.40;26.90;;;;;;6303074;28;20028;-83
2024/02/14 14:18:36;;;;;;;5.57;1.23;;;21.30;27.10;;;;;;6285363;28;20020;-79
2024/02/14 14:21:38;;;;;;;5.88;1.65;;;21.30;27.20;;;;;;6317772;28;20031;-78
2024/02/14 14:24:41;;;;;;;4.15;1.63;;;21.20;27.20;;;;;;6301492;28;20528;-80
2024/02/14 14:27:42;;;;;;;2.50;1.30;;;21.10;27.20;;;;;;6304990;28;20016;-79
2024/02/14 14:30:44;;;;;;;2.17;1.02;;;21.10;27.40;;;;;;6301235;28;20020;-80
2024/02/14 14:33:48;;;;;;;1.45;1.05;;;21.00;27.30;;;;;;6302603;28;20097;-82
2024/02/14 14:36:50;;;;;;;1.48;1.13;;;21.00;27.30;;;;;;6301641;28;20059;-80
2024/02/14 14:39:56;;;;;;;10.02;1.30;;;21.10;27.50;;;;;;6282873;28;20032;-79
2024/02/14 14:42:58;;;;;;;8.68;1.13;;;21.20;27.70;;;;;;6303140;28;20033;-80
2024/02/14 14:45:59;;;;;;;2.97;1.20;;;21.30;27.60;;;;;;6301698;28;20111;-81
2024/02/14 14:49:01;;;;;;;1.38;0.93;;;21.50;27.60;;;;;;6301474;28;20035;-79
2024/02/14 14:52:04;;;;;;;5.20;1.25;;;21.60;27.60;;;;;;6301542;28;20013;-79
2024/02/14 14:55:06;;;;;;;2.35;1.30;;;21.70;27.50;;;;;;6268184;28;20020;-79
2024/02/14 14:58:13;;;;;;;2.75;1.20;;;21.60;27.50;;;;;;6284787;28;20413;-80
2024/02/14 15:01:15;;;;;;;3.17;1.33;;;21.50;27.50;;;;;;6311312;28;20070;-81
2024/02/14 15:04:17;;;;;;;4.30;1.80;;;21.40;27.70;;;;;;6307267;28;20067;-80
2024/02/14 15:07:21;;;;;;;8.00;1.95;;;21.30;27.80;;;;;;6304530;28;20035;-80
2024/02/14 15:10:22;;;;;;;4.93;2.30;;;21.20;28.00;;;;;;6307323;28;20072;-80
2024/02/14 15:13:23;;;;;;;4.30;1.50;;;21.10;27.90;;;;;;6305263;28;20020;-80
2024/02/14 15:16:25;;;;;;;1.88;1.05;;;21.00;27.70;;;;;;6304164;28;20573;-78
2024/02/14 15:19:27;;;;;;;7.22;1.33;;;20.80;28.00;;;;;;6304173;28;20085;-81
2024/02/14 15:22:30;;;;;;;4.25;1.40;;;20.70;27.80;;;;;;6289141;28;20060;-80
2024/02/14 15:25:30;;;;;;;15.77;2.58;;;20.60;27.90;;;;;;6290694;28;20028;-79
2024/02/14 15:28:33;;;;;;;7.15;2.33;;;20.60;27.70;;;;;;6306795;28;20060;-81
2024/02/14 15:34:55;;;;;;;2.70;1.23;;;20.50;27.40;;;;;;6297514;28;20028;-81
2024/02/14 15:37:56;;;;;;;3.65;1.00;;;20.40;27.60;;;;;;6282712;28;20580;-79
2024/02/14 15:41:01;;;;;;;2.45;1.17;;;20.50;27.50;;;;;;6310029;28;20047;-80
2024/02/14 15:44:01;;;;;;;4.30;1.15;;;20.30;27.60;;;;;;6302786;28;20441;-79
2024/02/14 15:47:02;;;;;;;2.42;1.40;;;20.30;27.60;;;;;;6292772;28;20067;-79
2024/02/14 15:50:07;;;;;;;2.45;0.90;;;20.20;27.60;;;;;;6310071;28;20012;-79
2024/02/14 15:53:08;;;;;;;2.22;1.20;;;20.20;27.40;;;;;;6300791;28;20043;-80
2024/02/14 15:56:11;;;;;;;2.80;0.77;;;20.10;27.20;;;;;;6306649;28;20100;-81
2024/02/14 15:59:15;;;;;;;2.58;1.17;;;20.00;27.20;;;;;;6303993;28;20463;-78
2024/02/14 16:02:17;;;;;;;1.67;1.05;;;20.00;26.90;;;;;;6291428;28;20020;-79
2024/02/14 16:05:24;;;;;;;;;;;19.90;27.10;;;;;;6303686;28;20064;-80
2024/02/14 16:08:25;;;;;;;3.97;2.28;;;19.80;27.00;;;;;;6306900;28;19954;-81
2024/02/14 16:11:32;;;;;;;6.97;1.95;;;19.80;27.10;;;;;;6290588;28;20111;-81